Time;durP1;ratioP1;P1;durP2;ratioP2;P2;SDS_P1;SDS_P2;PMS_P1;PMS_P2;Temp;Humidity;BMP_temperature;BMP_pressure;BME280_temperature;BME280_humidity;BME280_pressure;Samples;Min_cycle;Max_cycle;Signal;HPM_P1;HPM_P2
2021/03/17 00:02:13;;;;;;;20.85;4.78;;;7.10;87.70;;;;;;5004817;28;20071;-80
2021/03/17 00:04:39;;;;;;;22.27;4.43;;;7.20;87.60;;;;;;4989375;28;20121;-80
2021/03/17 00:07:05;;;;;;;24.33;5.45;;;7.10;87.00;;;;;;5004155;28;20121;-80
2021/03/17 00:09:30;;;;;;;18.98;5.32;;;7.20;87.00;;;;;;5003103;28;20045;-79
2021/03/17 00:11:56;;;;;;;18.85;4.53;;;7.10;87.00;;;;;;5008528;28;20048;-81
2021/03/17 00:14:22;;;;;;;18.52;4.60;;;7.20;86.90;;;;;;4995391;28;20370;-80
2021/03/17 00:16:48;;;;;;;21.50;5.78;;;7.10;87.00;;;;;;5006901;28;20037;-81
2021/03/17 00:19:13;;;;;;;18.15;5.40;;;7.20;86.90;;;;;;5000477;28;20046;-81
2021/03/17 00:21:39;;;;;;;16.15;5.63;;;7.10;86.90;;;;;;5009763;28;20061;-80
2021/03/17 00:24:06;;;;;;;16.10;5.15;;;7.10;86.90;;;;;;5001393;28;20475;-80
2021/03/17 00:26:31;;;;;;;16.45;5.85;;;7.10;87.10;;;;;;4997717;28;20059;-80
2021/03/17 00:28:57;;;;;;;13.85;5.63;;;7.10;87.20;;;;;;5009057;28;20053;-81
2021/03/17 00:31:23;;;;;;;14.65;6.10;;;7.00;87.10;;;;;;5007584;28;20033;-81
2021/03/17 00:33:48;;;;;;;16.58;7.07;;;7.10;87.30;;;;;;5009492;28;20038;-80
2021/03/17 00:36:14;;;;;;;16.10;6.75;;;7.00;87.20;;;;;;5003698;28;20030;-81
2021/03/17 00:38:40;;;;;;;14.65;6.95;;;7.00;87.30;;;;;;5000425;28;20045;-81
2021/03/17 00:41:05;;;;;;;16.92;8.35;;;7.00;87.50;;;;;;5001472;28;20026;-81
2021/03/17 00:43:31;;;;;;;18.35;8.40;;;7.00;87.80;;;;;;5002780;28;20049;-81
2021/03/17 00:45:56;;;;;;;19.33;9.35;;;7.00;87.90;;;;;;5000165;28;20474;-80
2021/03/17 00:48:22;;;;;;;20.85;10.40;;;6.90;88.20;;;;;;5019063;28;20045;-80
2021/03/17 00:50:48;;;;;;;19.35;10.23;;;6.90;88.20;;;;;;5004868;28;20428;-81
2021/03/17 00:53:13;;;;;;;17.42;10.77;;;7.00;88.30;;;;;;5004763;28;20053;-80
2021/03/17 00:55:39;;;;;;;17.75;11.73;;;7.00;88.20;;;;;;5006292;28;20030;-80
2021/03/17 00:58:04;;;;;;;20.63;12.93;;;7.00;88.30;;;;;;4999476;28;20034;-80
2021/03/17 01:00:30;;;;;;;21.13;14.20;;;7.00;88.30;;;;;;5014656;28;20475;-82
2021/03/17 01:02:56;;;;;;;25.25;14.63;;;7.00;88.30;;;;;;5003703;28;20064;-80
2021/03/17 01:05:21;;;;;;;21.27;14.52;;;7.00;88.10;;;;;;4996538;28;20062;-80
2021/03/17 01:07:47;;;;;;;21.98;15.27;;;7.00;88.20;;;;;;5028876;28;20068;-80
2021/03/17 01:10:19;;;;;;;23.30;16.70;;;7.00;88.10;;;;;;5006003;28;20146;-80
2021/03/17 01:12:45;;;;;;;22.48;16.33;;;7.00;88.10;;;;;;5004340;28;20155;-81
2021/03/17 01:15:13;;;;;;;24.50;17.02;;;7.00;87.90;;;;;;5005996;28;20057;-81
2021/03/17 01:17:40;;;;;;;27.05;18.30;;;7.00;87.80;;;;;;5003720;28;20065;-81
2021/03/17 01:20:06;;;;;;;24.85;19.38;;;7.00;87.40;;;;;;5007635;28;20110;-80
2021/03/17 01:22:32;;;;;;;26.42;20.33;;;6.90;87.10;;;;;;4998154;28;20046;-80
2021/03/17 01:24:58;;;;;;;28.60;20.35;;;6.90;87.30;;;;;;5002355;28;20033;-80
2021/03/17 01:27:23;;;;;;;30.52;20.95;;;6.90;87.60;;;;;;4995051;28;20402;-80
2021/03/17 01:29:49;;;;;;;28.65;21.52;;;6.90;87.60;;;;;;5003501;28;20030;-81
2021/03/17 01:32:14;;;;;;;31.73;23.95;;;6.80;87.60;;;;;;5002207;28;20109;-81
2021/03/17 01:34:40;;;;;;;30.45;22.70;;;6.80;87.70;;;;;;5001434;28;20444;-80
2021/03/17 01:37:06;;;;;;;32.03;23.20;;;6.80;87.60;;;;;;5008643;28;20033;-80
2021/03/17 01:39:32;;;;;;;31.38;23.05;;;6.80;87.60;;;;;;5005045;28;20042;-80
2021/03/17 01:41:57;;;;;;;33.33;24.80;;;6.70;87.30;;;;;;4997561;28;20027;-80
2021/03/17 01:44:23;;;;;;;30.23;23.17;;;6.60;87.20;;;;;;5002172;28;20100;-81
2021/03/17 01:46:49;;;;;;;31.45;24.58;;;6.70;87.20;;;;;;5003199;28;20488;-80
2021/03/17 01:49:14;;;;;;;31.10;23.20;;;6.60;87.30;;;;;;5003159;28;20426;-80
2021/03/17 01:51:40;;;;;;;32.72;23.15;;;6.60;87.20;;;;;;5013846;28;20032;-81
2021/03/17 01:54:07;;;;;;;30.75;22.42;;;6.60;87.30;;;;;;5000048;28;20030;-80
2021/03/17 01:56:33;;;;;;;30.90;21.40;;;6.50;87.30;;;;;;5009964;28;20029;-81
2021/03/17 01:59:00;;;;;;;30.83;22.52;;;6.50;87.30;;;;;;5008445;28;20461;-80
2021/03/17 02:01:27;;;;;;;32.40;22.83;;;6.50;87.30;;;;;;4998853;28;20527;-80
2021/03/17 02:03:52;;;;;;;33.30;23.08;;;6.50;87.40;;;;;;5012265;28;21288;-81
2021/03/17 02:06:18;;;;;;;33.05;23.00;;;6.50;87.40;;;;;;5002139;28;20462;-82
2021/03/17 02:08:44;;;;;;;33.35;23.73;;;6.50;87.30;;;;;;5008992;28;20056;-81
2021/03/17 02:11:12;;;;;;;33.03;24.17;;;6.50;87.40;;;;;;5002688;28;20026;-82
2021/03/17 02:13:56;;;;;;;31.63;23.25;;;6.50;87.30;;;;;;4998772;28;20465;-81
2021/03/17 02:16:33;;;;;;;30.37;22.27;;;6.50;87.40;;;;;;5014466;28;20056;-81
2021/03/17 02:19:30;;;;;;;32.88;24.08;;;6.50;87.10;;;;;;5011005;28;20088;-81
2021/03/17 02:22:20;;;;;;;33.55;24.45;;;6.50;87.40;;;;;;5010465;28;20044;-81
2021/03/17 02:25:19;;;;;;;30.00;23.30;;;6.50;87.30;;;;;;4994535;28;20052;-81
2021/03/17 02:28:19;;;;;;;31.88;24.42;;;6.40;87.20;;;;;;5013378;28;20026;-82
2021/03/17 02:31:12;;;;;;;32.42;25.25;;;6.40;87.20;;;;;;4995436;28;20256;-81
2021/03/17 02:33:48;;;;;;;31.23;23.45;;;6.40;86.90;;;;;;5004888;28;20030;-81
2021/03/17 02:36:37;;;;;;;32.88;25.42;;;6.40;87.30;;;;;;4999105;28;20153;-81
2021/03/17 02:39:15;;;;;;;31.05;23.75;;;6.40;87.10;;;;;;4997206;28;20096;-81
2021/03/17 02:42:02;;;;;;;31.33;24.95;;;6.30;87.10;;;;;;5005924;28;20035;-81
2021/03/17 02:44:28;;;;;;;33.13;25.60;;;6.30;87.20;;;;;;5000028;28;20053;-82
2021/03/17 02:46:59;;;;;;;31.13;24.42;;;6.30;87.20;;;;;;4996520;28;20037;-80
2021/03/17 02:49:30;;;;;;;32.05;25.05;;;6.30;87.20;;;;;;4996583;28;20034;-81
2021/03/17 02:51:59;;;;;;;30.95;24.95;;;6.40;87.20;;;;;;5006153;28;20112;-82
2021/03/17 02:54:26;;;;;;;31.25;23.88;;;6.40;87.30;;;;;;4994722;28;21010;-80
2021/03/17 02:57:26;;;;;;;30.90;24.00;;;6.30;87.30;;;;;;5011274;28;20103;-81
2021/03/17 02:59:53;;;;;;;29.13;22.70;;;6.40;87.00;;;;;;4981973;28;20125;-81
2021/03/17 03:02:21;;;;;;;27.92;22.05;;;6.30;87.20;;;;;;5002021;28;20038;-83
2021/03/17 03:04:50;;;;;;;29.58;22.27;;;6.30;87.20;;;;;;4996329;28;20148;-82
2021/03/17 03:07:16;;;;;;;30.50;23.50;;;6.30;87.10;;;;;;4996903;28;20022;-81
2021/03/17 03:09:42;;;;;;;29.08;23.05;;;6.30;87.20;;;;;;4989939;28;20092;-82
2021/03/17 03:12:09;;;;;;;27.77;22.38;;;6.20;87.10;;;;;;4989156;28;20176;-84
2021/03/17 03:14:35;;;;;;;27.42;21.50;;;6.30;87.10;;;;;;4992013;28;20026;-81
2021/03/17 03:17:04;;;;;;;28.20;21.60;;;6.20;87.00;;;;;;5003571;28;20030;-80
2021/03/17 03:19:32;;;;;;;28.17;22.20;;;6.20;87.00;;;;;;5005107;28;20052;-81
2021/03/17 03:21:59;;;;;;;28.40;21.33;;;6.20;86.90;;;;;;5000976;28;20031;-80
2021/03/17 03:24:25;;;;;;;29.27;20.70;;;6.20;87.10;;;;;;5004117;28;20128;-79
2021/03/17 03:26:57;;;;;;;28.10;20.75;;;6.20;87.00;;;;;;5019132;28;20073;-79
2021/03/17 03:29:24;;;;;;;26.63;20.85;;;6.30;87.00;;;;;;5006363;28;20045;-79
2021/03/17 03:31:50;;;;;;;27.05;21.23;;;6.20;87.00;;;;;;5001690;28;20038;-79
2021/03/17 03:34:17;;;;;;;25.30;20.05;;;6.30;87.10;;;;;;5012661;28;20087;-79
2021/03/17 03:36:44;;;;;;;26.45;20.52;;;6.30;87.20;;;;;;5010052;28;20481;-81
2021/03/17 03:39:11;;;;;;;25.33;19.88;;;6.30;87.20;;;;;;5004184;28;20037;-81
2021/03/17 03:41:36;;;;;;;24.40;18.50;;;6.30;87.30;;;;;;4999595;28;20044;-82
2021/03/17 03:44:03;;;;;;;23.95;18.25;;;6.30;87.30;;;;;;5006279;28;20378;-79
2021/03/17 03:46:29;;;;;;;23.08;18.02;;;6.30;87.10;;;;;;4999781;28;20117;-79
2021/03/17 03:48:55;;;;;;;22.55;16.95;;;6.30;87.20;;;;;;5008255;28;20473;-80
2021/03/17 03:51:21;;;;;;;24.95;17.33;;;6.30;87.20;;;;;;5003677;28;20048;-81
2021/03/17 03:54:15;;;;;;;22.45;17.35;;;6.30;87.10;;;;;;4994411;28;20496;-80
2021/03/17 03:57:12;;;;;;;22.88;16.73;;;6.20;87.20;;;;;;4994632;28;20033;-80
2021/03/17 03:59:46;;;;;;;24.05;17.17;;;6.30;87.20;;;;;;5001434;28;20065;-81
2021/03/17 04:02:19;;;;;;;24.73;16.63;;;6.30;87.20;;;;;;5009834;28;20045;-80
2021/03/17 04:04:48;;;;;;;25.90;17.38;;;6.30;87.20;;;;;;5002657;28;20038;-79
2021/03/17 04:07:16;;;;;;;22.63;17.40;;;6.30;87.30;;;;;;5009312;28;20030;-80
2021/03/17 04:10:05;;;;;;;25.33;17.95;;;6.30;87.20;;;;;;5015036;28;20046;-80
2021/03/17 04:12:36;;;;;;;27.05;18.10;;;6.20;87.40;;;;;;5006003;28;20049;-80
2021/03/17 04:15:03;;;;;;;24.90;17.80;;;6.20;87.50;;;;;;5003925;28;20042;-80
2021/03/17 04:17:49;;;;;;;24.60;17.65;;;6.20;87.70;;;;;;5005615;28;20026;-80
2021/03/17 04:20:18;;;;;;;24.85;17.02;;;6.30;87.70;;;;;;5003312;28;20042;-80
2021/03/17 04:22:46;;;;;;;23.92;17.70;;;6.30;87.80;;;;;;5006620;28;20544;-79
2021/03/17 04:25:15;;;;;;;30.15;18.63;;;6.30;87.90;;;;;;5003617;28;20039;-81
2021/03/17 04:27:45;;;;;;;26.83;19.25;;;6.20;88.20;;;;;;5013272;28;20073;-81
2021/03/17 04:30:13;;;;;;;28.27;18.52;;;6.20;88.40;;;;;;5002237;28;20030;-80
2021/03/17 04:32:42;;;;;;;27.13;19.27;;;6.20;88.80;;;;;;5004838;28;20033;-80
2021/03/17 04:35:09;;;;;;;29.85;19.35;;;6.20;88.80;;;;;;5016651;28;20037;-80
2021/03/17 04:37:36;;;;;;;31.73;20.35;;;6.20;89.20;;;;;;4999944;28;20030;-80
2021/03/17 04:40:03;;;;;;;26.15;19.88;;;6.20;89.40;;;;;;5017017;28;20089;-81
2021/03/17 04:42:30;;;;;;;28.85;20.08;;;6.20;89.50;;;;;;4999656;28;20341;-80
2021/03/17 04:44:56;;;;;;;26.85;19.30;;;6.20;89.60;;;;;;4997468;28;20030;-80
2021/03/17 04:47:22;;;;;;;29.85;19.50;;;6.20;89.70;;;;;;5000976;28;20076;-82
2021/03/17 04:49:49;;;;;;;30.27;21.00;;;6.20;89.80;;;;;;5005889;28;20038;-80
2021/03/17 04:52:18;;;;;;;27.42;19.80;;;6.20;90.00;;;;;;5023016;28;20060;-80
2021/03/17 04:54:44;;;;;;;31.35;19.55;;;6.20;90.20;;;;;;5001496;28;20042;-81
2021/03/17 04:57:16;;;;;;;27.38;19.73;;;6.20;90.30;;;;;;5004310;28;20034;-80
2021/03/17 04:59:43;;;;;;;28.75;18.88;;;6.20;90.40;;;;;;4999213;28;20065;-80
2021/03/17 05:02:10;;;;;;;27.02;18.38;;;6.20;90.60;;;;;;5012710;28;20122;-80
2021/03/17 05:04:39;;;;;;;26.08;17.67;;;6.20;90.70;;;;;;4994026;28;20038;-80
2021/03/17 05:07:06;;;;;;;26.95;17.02;;;6.20;90.70;;;;;;4995026;28;20096;-80
2021/03/17 05:09:33;;;;;;;24.92;16.65;;;6.20;90.90;;;;;;5001355;28;20457;-80
2021/03/17 05:12:03;;;;;;;29.02;15.85;;;6.20;90.90;;;;;;5018715;28;20355;-80
2021/03/17 05:14:31;;;;;;;29.73;14.40;;;6.30;91.00;;;;;;5001652;28;20148;-80
2021/03/17 05:16:57;;;;;;;25.65;12.68;;;6.30;91.00;;;;;;5003707;28;20061;-81
2021/03/17 05:19:23;;;;;;;21.83;11.25;;;6.40;91.00;;;;;;4997159;28;20046;-80
2021/03/17 05:21:49;;;;;;;24.25;10.75;;;6.40;91.20;;;;;;5009475;28;20045;-81
2021/03/17 05:24:15;;;;;;;23.95;8.27;;;6.40;91.30;;;;;;5009663;28;20042;-81
2021/03/17 05:26:42;;;;;;;24.35;7.80;;;6.50;91.30;;;;;;5002692;28;20053;-81
2021/03/17 05:29:08;;;;;;;24.90;5.97;;;6.50;91.40;;;;;;5000595;28;20420;-82
2021/03/17 05:31:35;;;;;;;30.55;7.20;;;6.50;91.30;;;;;;4998777;28;20034;-81
2021/03/17 05:34:01;;;;;;;26.65;7.25;;;6.60;91.20;;;;;;5000574;28;20064;-80
2021/03/17 05:36:27;;;;;;;26.35;6.47;;;6.60;91.20;;;;;;5006115;28;20461;-80
2021/03/17 05:38:53;;;;;;;27.25;5.03;;;6.60;91.20;;;;;;5008096;28;20025;-79
2021/03/17 05:41:20;;;;;;;30.98;6.13;;;6.60;91.30;;;;;;5001650;28;20117;-80
2021/03/17 05:43:47;;;;;;;25.95;5.90;;;6.60;91.40;;;;;;5002897;28;20473;-80
2021/03/17 05:46:14;;;;;;;33.15;5.68;;;6.60;91.40;;;;;;5016822;28;20041;-80
2021/03/17 05:48:41;;;;;;;32.35;6.25;;;6.60;91.40;;;;;;5001094;28;20473;-79
2021/03/17 05:51:08;;;;;;;29.65;6.65;;;6.70;91.30;;;;;;5003165;28;20088;-80
2021/03/17 05:53:34;;;;;;;39.47;7.47;;;6.60;91.30;;;;;;5008807;28;20133;-79
2021/03/17 05:56:03;;;;;;;35.67;6.57;;;6.60;91.30;;;;;;5000391;28;20034;-80
2021/03/17 05:58:29;;;;;;;45.10;8.18;;;6.60;91.40;;;;;;5003023;28;20133;-80
2021/03/17 06:00:54;;;;;;;35.22;7.28;;;6.60;91.40;;;;;;5003794;28;20030;-79
2021/03/17 06:03:21;;;;;;;43.72;7.28;;;6.60;91.50;;;;;;5000340;28;20061;-81
2021/03/17 06:05:47;;;;;;;46.70;8.27;;;6.60;91.50;;;;;;5001196;28;20040;-80
2021/03/17 06:08:24;;;;;;;40.35;7.70;;;6.60;91.50;;;;;;5001023;28;20034;-80
2021/03/17 06:10:50;;;;;;;51.17;10.95;;;6.70;91.50;;;;;;4995363;28;20033;-80
2021/03/17 06:13:16;;;;;;;53.40;9.90;;;6.70;91.40;;;;;;4999171;28;20477;-81
2021/03/17 06:15:49;;;;;;;64.25;10.27;;;6.60;91.30;;;;;;5002999;28;20026;-80
2021/03/17 06:18:26;;;;;;;57.83;10.05;;;6.70;91.20;;;;;;4999604;28;20033;-80
2021/03/17 06:20:52;;;;;;;59.95;11.90;;;6.70;90.90;;;;;;5014587;28;20042;-80
2021/03/17 06:23:19;;;;;;;56.08;11.10;;;6.70;90.50;;;;;;4999191;28;20227;-79
2021/03/17 06:25:46;;;;;;;58.35;11.38;;;6.70;90.10;;;;;;4997528;28;20084;-81
2021/03/17 06:28:12;;;;;;;57.13;10.07;;;6.90;89.50;;;;;;5002900;28;20044;-80
2021/03/17 06:30:38;;;;;;;56.22;9.88;;;6.90;89.20;;;;;;5002873;28;20046;-79
2021/03/17 06:33:04;;;;;;;60.33;11.23;;;6.90;88.80;;;;;;5000676;28;20377;-77
2021/03/17 06:35:30;;;;;;;61.75;10.80;;;6.90;88.30;;;;;;5013769;28;20067;-74
2021/03/17 06:37:56;;;;;;;55.30;10.30;;;7.00;88.20;;;;;;5003689;28;20453;-73
2021/03/17 06:40:32;;;;;;;47.78;10.07;;;7.00;88.20;;;;;;4997952;28;20038;-74
2021/03/17 06:43:11;;;;;;;54.10;9.90;;;7.10;88.30;;;;;;5003173;28;20101;-75
2021/03/17 06:45:46;;;;;;;53.30;9.23;;;7.10;88.20;;;;;;4998298;28;20046;-73
2021/03/17 06:48:21;;;;;;;61.85;11.07;;;7.10;88.10;;;;;;4997359;28;20041;-77
2021/03/17 06:51:00;;;;;;;;;;;7.10;88.10;;;;;;5004347;28;20038;-73
2021/03/17 06:53:35;;;;;;;53.45;9.75;;;7.10;87.90;;;;;;4996548;28;19956;-74
2021/03/17 06:56:26;;;;;;;38.95;7.28;;;7.10;87.40;;;;;;5003137;28;20116;-74
2021/03/17 06:58:56;;;;;;;51.38;9.63;;;7.10;86.90;;;;;;5010545;28;20177;-74
2021/03/17 07:01:35;;;;;;;50.15;8.65;;;7.10;87.00;;;;;;4999107;28;20034;-73
2021/03/17 07:04:04;;;;;;;44.50;7.97;;;7.20;86.80;;;;;;5002977;28;20097;-74
2021/03/17 07:06:31;;;;;;;42.53;9.50;;;7.10;86.70;;;;;;4999694;28;20030;-73
2021/03/17 07:08:57;;;;;;;53.08;10.18;;;7.20;86.60;;;;;;4999476;28;21749;-74
2021/03/17 07:11:28;;;;;;;49.28;10.00;;;7.20;86.40;;;;;;4999259;28;20446;-74
2021/03/17 07:13:57;;;;;;;45.58;9.95;;;7.20;86.30;;;;;;5012118;28;20030;-74
2021/03/17 07:16:32;;;;;;;56.28;10.55;;;7.20;86.10;;;;;;5005121;28;20420;-73
2021/03/17 07:18:58;;;;;;;43.00;8.57;;;7.20;85.80;;;;;;5012975;28;20038;-75
2021/03/17 07:21:33;;;;;;;37.05;7.35;;;7.30;85.90;;;;;;5009807;28;20034;-73
2021/03/17 07:23:59;;;;;;;46.53;8.93;;;7.30;85.00;;;;;;4998477;28;20104;-72
2021/03/17 07:26:35;;;;;;;48.10;8.20;;;7.30;85.20;;;;;;4998963;28;20026;-72
2021/03/17 07:29:05;;;;;;;41.38;7.88;;;7.30;85.00;;;;;;5022895;28;20385;-72
2021/03/17 07:31:32;;;;;;;41.55;8.30;;;7.40;85.00;;;;;;4999322;28;20038;-72
2021/03/17 07:34:11;;;;;;;43.40;8.20;;;7.40;85.20;;;;;;5003165;28;20034;-72
2021/03/17 07:36:41;;;;;;;38.00;8.30;;;7.40;84.90;;;;;;4996420;28;20073;-72
2021/03/17 07:39:16;;;;;;;45.85;9.32;;;7.40;84.70;;;;;;4998966;28;20350;-72
2021/03/17 07:41:42;;;;;;;45.25;8.85;;;7.50;84.90;;;;;;5000773;28;20458;-72
2021/03/17 07:44:10;;;;;;;48.45;9.38;;;7.50;84.60;;;;;;5006278;28;20053;-72
2021/03/17 07:46:38;;;;;;;41.58;7.78;;;7.60;84.50;;;;;;4995265;28;20662;-72
2021/03/17 07:49:06;;;;;;;49.47;8.45;;;7.60;84.80;;;;;;4994952;28;20092;-73
2021/03/17 07:51:39;;;;;;;58.85;9.13;;;7.60;84.50;;;;;;5003550;28;21119;-74
2021/03/17 07:54:07;;;;;;;45.03;9.20;;;7.60;84.50;;;;;;5002689;28;20034;-73
2021/03/17 07:56:33;;;;;;;44.28;8.65;;;7.60;84.40;;;;;;5005571;28;20533;-73
2021/03/17 07:58:59;;;;;;;38.63;9.63;;;7.60;84.40;;;;;;4994649;28;20050;-73
2021/03/17 08:01:26;;;;;;;48.40;9.68;;;7.60;84.30;;;;;;4999341;28;20060;-71
2021/03/17 08:03:52;;;;;;;46.00;9.32;;;7.60;84.50;;;;;;5001913;28;20398;-73
2021/03/17 08:06:20;;;;;;;53.85;10.43;;;7.60;84.80;;;;;;5010065;28;20034;-72
2021/03/17 08:08:46;;;;;;;47.53;8.93;;;7.60;85.10;;;;;;5000658;28;20030;-72
2021/03/17 08:11:14;;;;;;;50.88;9.52;;;7.50;84.80;;;;;;5000163;28;20152;-74
2021/03/17 08:13:43;;;;;;;55.05;8.55;;;7.40;85.20;;;;;;5004146;28;20033;-72
2021/03/17 08:16:11;;;;;;;39.85;8.38;;;7.40;85.90;;;;;;4999556;28;20350;-74
2021/03/17 08:18:43;;;;;;;50.33;8.63;;;7.50;85.80;;;;;;4999228;28;20038;-72
2021/03/17 08:21:08;;;;;;;41.70;8.73;;;7.50;85.40;;;;;;5001585;28;20049;-72
2021/03/17 08:23:50;;;;;;;47.95;9.70;;;7.60;85.10;;;;;;5005483;28;20045;-73
2021/03/17 08:26:22;;;;;;;47.90;9.85;;;7.60;84.90;;;;;;4998536;28;20049;-74
2021/03/17 08:28:53;;;;;;;39.35;8.63;;;7.60;84.30;;;;;;5002155;28;20537;-75
2021/03/17 08:31:39;;;;;;;39.97;8.93;;;7.60;84.50;;;;;;4997327;28;20037;-73
2021/03/17 08:34:22;;;;;;;18.90;4.57;;;7.60;84.30;;;;;;4998706;28;20046;-73
2021/03/17 08:36:50;;;;;;;24.20;4.90;;;7.60;83.30;;;;;;4999942;28;20547;-73
2021/03/17 08:39:32;;;;;;;25.88;4.55;;;7.50;83.60;;;;;;5002359;28;20053;-74
2021/03/17 08:42:26;;;;;;;26.08;3.83;;;7.60;83.80;;;;;;4996279;28;20457;-73
2021/03/17 08:44:53;;;;;;;19.50;4.95;;;7.40;83.70;;;;;;4995938;28;20051;-75
2021/03/17 08:47:33;;;;;;;27.65;4.82;;;7.50;83.90;;;;;;4997225;28;20119;-77
2021/03/17 08:50:20;;;;;;;22.40;4.20;;;7.40;84.30;;;;;;4999457;28;20039;-73
2021/03/17 08:52:50;;;;;;;25.38;4.25;;;7.30;84.80;;;;;;4996895;28;20030;-74
2021/03/17 08:55:17;;;;;;;26.17;5.07;;;7.30;85.50;;;;;;4993744;28;20035;-73
2021/03/17 08:57:58;;;;;;;19.50;3.47;;;7.30;85.10;;;;;;5002775;28;20113;-73
2021/03/17 09:00:49;;;;;;;28.40;4.53;;;7.40;84.40;;;;;;5006353;28;20040;-72
2021/03/17 09:03:38;;;;;;;18.05;3.47;;;7.50;83.60;;;;;;5003200;28;20042;-72
2021/03/17 09:06:29;;;;;;;20.40;4.18;;;7.50;83.60;;;;;;5006285;28;20038;-72
2021/03/17 09:09:00;;;;;;;24.38;3.60;;;7.60;83.10;;;;;;5004144;28;20038;-75
2021/03/17 09:11:29;;;;;;;22.55;3.85;;;7.60;83.50;;;;;;4997371;28;20125;-74
2021/03/17 09:13:57;;;;;;;20.08;3.92;;;7.60;82.80;;;;;;5013009;28;20050;-73
2021/03/17 09:16:23;;;;;;;12.32;2.72;;;7.50;83.10;;;;;;5004618;28;20032;-72
2021/03/17 09:19:10;;;;;;;17.45;3.20;;;7.50;83.30;;;;;;5004383;28;20038;-72
2021/03/17 09:21:38;;;;;;;28.13;11.45;;;7.40;84.40;;;;;;5010008;28;20065;-72
2021/03/17 09:24:24;;;;;;;18.83;5.20;;;7.40;85.60;;;;;;5006478;28;20545;-72
2021/03/17 09:26:58;;;;;;;15.48;2.58;;;7.40;86.40;;;;;;5005309;28;20053;-71
2021/03/17 09:29:25;;;;;;;8.45;2.60;;;7.10;87.20;;;;;;4998552;28;20030;-72
2021/03/17 09:31:53;;;;;;;9.23;2.50;;;7.10;87.60;;;;;;5002316;28;20026;-72
2021/03/17 09:34:35;;;;;;;10.77;2.20;;;7.20;87.50;;;;;;4995315;28;20034;-72
2021/03/17 09:37:06;;;;;;;7.28;2.38;;;7.30;87.00;;;;;;4991196;28;20035;-72
2021/03/17 09:39:36;;;;;;;7.65;2.08;;;7.50;85.90;;;;;;4995613;28;20363;-72
2021/03/17 09:42:03;;;;;;;10.52;2.20;;;7.60;84.90;;;;;;5001340;28;20640;-75
2021/03/17 09:44:28;;;;;;;7.13;2.40;;;7.60;84.10;;;;;;4999554;28;20097;-72
2021/03/17 09:46:55;;;;;;;7.15;2.05;;;7.90;84.50;;;;;;5008247;28;20123;-72
2021/03/17 09:49:23;;;;;;;8.13;2.20;;;8.00;83.40;;;;;;5000003;28;20045;-72
2021/03/17 09:51:57;;;;;;;8.25;2.20;;;7.80;82.10;;;;;;5016782;28;20029;-72
2021/03/17 09:54:25;;;;;;;10.90;2.22;;;7.80;83.10;;;;;;5002970;28;20030;-71
2021/03/17 09:56:53;;;;;;;10.13;2.72;;;7.60;83.40;;;;;;4994621;28;20046;-72
2021/03/17 09:59:46;;;;;;;8.27;2.03;;;7.60;83.50;;;;;;4995024;28;20064;-75
2021/03/17 10:02:24;;;;;;;13.45;2.58;;;7.60;83.70;;;;;;5007437;28;20116;-74
2021/03/17 10:04:58;;;;;;;10.63;2.70;;;7.60;83.90;;;;;;5015066;28;20370;-72
2021/03/17 10:07:30;;;;;;;10.10;2.88;;;7.40;83.90;;;;;;5003154;28;20082;-72
2021/03/17 10:09:57;;;;;;;10.70;2.50;;;7.50;85.20;;;;;;4995934;28;20042;-73
2021/03/17 10:12:30;;;;;;;10.90;3.22;;;7.40;85.40;;;;;;5001675;28;20041;-73
2021/03/17 10:15:02;;;;;;;6.60;1.92;;;7.60;85.20;;;;;;5009715;28;20030;-72
2021/03/17 10:17:29;;;;;;;9.27;3.22;;;7.80;82.90;;;;;;4994255;28;20037;-73
2021/03/17 10:20:02;;;;;;;8.90;2.10;;;7.90;82.10;;;;;;5004024;28;20381;-76
2021/03/17 10:22:29;;;;;;;12.98;2.55;;;7.90;80.30;;;;;;5004615;28;20473;-74
2021/03/17 10:24:57;;;;;;;10.95;1.90;;;8.00;79.80;;;;;;4996508;28;20041;-71
2021/03/17 10:27:31;;;;;;;12.93;2.78;;;8.10;78.30;;;;;;4997058;28;20035;-72
2021/03/17 10:30:04;;;;;;;11.10;2.55;;;8.10;78.80;;;;;;5001236;28;20371;-73
2021/03/17 10:32:30;;;;;;;9.95;2.38;;;8.10;77.50;;;;;;4995080;28;20050;-73
2021/03/17 10:34:56;;;;;;;10.50;2.40;;;8.30;78.80;;;;;;4996543;28;20029;-73
2021/03/17 10:37:22;;;;;;;10.77;2.83;;;8.10;77.80;;;;;;4992844;28;20037;-72
2021/03/17 10:39:50;;;;;;;9.95;2.38;;;8.00;78.10;;;;;;5000098;28;20335;-71
2021/03/17 10:42:25;;;;;;;11.40;2.53;;;8.00;79.10;;;;;;4990195;28;20030;-72
2021/03/17 10:45:11;;;;;;;;;;;8.00;78.00;;;;;;4994268;28;20045;-70
2021/03/17 10:47:39;;;;;;;11.45;1.80;;;8.10;77.50;;;;;;4998978;28;19909;-71
2021/03/17 10:50:08;;;;;;;12.48;2.55;;;8.10;77.70;;;;;;4999826;28;20031;-71
2021/03/17 10:52:37;;;;;;;12.00;2.15;;;8.10;77.80;;;;;;5009096;28;21100;-72
2021/03/17 10:55:15;;;;;;;12.55;2.45;;;8.10;78.50;;;;;;4995329;28;20347;-74
2021/03/17 10:57:41;;;;;;;15.27;3.05;;;8.10;78.00;;;;;;4998600;28;20469;-74
2021/03/17 11:00:18;;;;;;;10.88;2.13;;;8.10;77.50;;;;;;5001011;28;20034;-71
2021/03/17 11:02:44;;;;;;;12.00;2.20;;;8.20;77.20;;;;;;4997937;28;20117;-71
2021/03/17 11:05:21;;;;;;;16.00;3.15;;;8.20;77.50;;;;;;5005015;28;20430;-71
2021/03/17 11:07:51;;;;;;;11.63;2.83;;;8.10;77.70;;;;;;5002655;28;20042;-72
2021/03/17 11:10:54;;;;;;;16.95;3.70;;;8.10;78.60;;;;;;4994878;28;20172;-72
2021/03/17 11:13:20;;;;;;;12.20;3.00;;;8.00;78.30;;;;;;5000607;28;20485;-72
2021/03/17 11:15:57;;;;;;;10.05;2.92;;;8.00;78.90;;;;;;5010452;28;20042;-73
2021/03/17 11:18:24;;;;;;;10.63;3.13;;;8.00;78.60;;;;;;5007398;28;20030;-72
2021/03/17 11:20:51;;;;;;;18.42;3.67;;;8.00;78.40;;;;;;4998549;28;20034;-73
2021/03/17 11:23:22;;;;;;;12.00;2.60;;;8.00;76.90;;;;;;5001616;28;20025;-72
2021/03/17 11:25:49;;;;;;;16.92;4.10;;;8.10;76.70;;;;;;5000094;28;20121;-73
2021/03/17 11:28:18;;;;;;;13.90;3.00;;;8.10;77.40;;;;;;4998877;28;20026;-73
2021/03/17 11:30:46;;;;;;;18.30;3.53;;;8.20;77.60;;;;;;5004652;28;20054;-74
2021/03/17 11:33:14;;;;;;;19.08;3.95;;;8.20;77.50;;;;;;5007891;28;20091;-72
2021/03/17 11:35:42;;;;;;;15.77;3.00;;;8.20;77.20;;;;;;5004721;28;20514;-72
2021/03/17 11:38:08;;;;;;;17.02;3.78;;;8.20;77.50;;;;;;4998891;28;20034;-76
2021/03/17 11:40:34;;;;;;;17.48;4.00;;;8.30;78.20;;;;;;5001450;28;20399;-72
2021/03/17 11:43:13;;;;;;;15.15;3.38;;;8.30;77.60;;;;;;5002205;28;20031;-73
2021/03/17 11:45:41;;;;;;;15.13;3.03;;;8.20;77.20;;;;;;4998436;28;20074;-72
2021/03/17 11:48:08;;;;;;;15.63;3.10;;;8.20;78.30;;;;;;5001840;28;20033;-74
2021/03/17 11:50:35;;;;;;;15.77;2.97;;;8.20;78.60;;;;;;5000136;28;20056;-73
2021/03/17 11:53:01;;;;;;;17.02;4.10;;;8.20;77.80;;;;;;4994670;28;20035;-74
2021/03/17 11:55:27;;;;;;;16.13;4.15;;;8.30;78.80;;;;;;5001728;28;20032;-74
2021/03/17 11:57:53;;;;;;;17.67;3.55;;;8.20;78.00;;;;;;4996873;28;20023;-73
2021/03/17 12:00:19;;;;;;;16.40;3.45;;;8.10;78.80;;;;;;5009383;28;20036;-74
2021/03/17 12:02:46;;;;;;;14.68;3.10;;;8.10;79.20;;;;;;5008083;28;20057;-74
2021/03/17 12:05:12;;;;;;;15.35;3.08;;;8.10;79.80;;;;;;5000687;28;20040;-74
2021/03/17 12:07:38;;;;;;;19.08;4.65;;;7.90;78.70;;;;;;5019307;28;20353;-73
2021/03/17 12:10:05;;;;;;;17.13;3.65;;;7.80;79.60;;;;;;5006456;28;20049;-74
2021/03/17 12:12:32;;;;;;;12.65;3.42;;;7.90;80.10;;;;;;5002166;28;20042;-73
2021/03/17 12:14:57;;;;;;;15.18;3.75;;;7.80;80.00;;;;;;5000225;28;20113;-73
2021/03/17 12:17:23;;;;;;;18.33;4.18;;;7.60;80.60;;;;;;4986718;28;20028;-73
2021/03/17 12:19:49;;;;;;;17.15;3.33;;;7.70;81.50;;;;;;5006852;28;20042;-73
2021/03/17 12:22:14;;;;;;;18.98;3.80;;;7.70;81.20;;;;;;5002008;28;20030;-75
2021/03/17 12:24:40;;;;;;;20.70;3.88;;;7.60;81.70;;;;;;5001471;28;20500;-74
2021/03/17 12:27:06;;;;;;;18.50;3.38;;;7.40;82.00;;;;;;5007207;28;20034;-74
2021/03/17 12:29:31;;;;;;;17.38;3.42;;;7.30;82.60;;;;;;5002696;28;20033;-74
2021/03/17 12:31:57;;;;;;;19.30;3.67;;;7.50;82.90;;;;;;5002287;28;20104;-73
2021/03/17 12:34:23;;;;;;;17.65;3.38;;;7.50;83.40;;;;;;5001999;28;20114;-74
2021/03/17 12:36:48;;;;;;;17.20;3.33;;;7.50;82.80;;;;;;5020227;28;20433;-73
2021/03/17 12:39:14;;;;;;;13.70;3.10;;;7.40;83.20;;;;;;5005659;28;20037;-77
2021/03/17 12:41:42;;;;;;;13.38;4.07;;;7.50;82.90;;;;;;5006906;28;20041;-74
2021/03/17 12:44:08;;;;;;;16.13;3.38;;;7.40;82.90;;;;;;5016806;28;20038;-73
2021/03/17 12:46:35;;;;;;;14.98;3.17;;;7.50;83.00;;;;;;4997898;28;20525;-74
2021/03/17 12:49:01;;;;;;;14.35;3.17;;;7.60;82.90;;;;;;5013903;28;20042;-73
2021/03/17 12:51:27;;;;;;;15.82;3.13;;;7.50;82.60;;;;;;5003727;28;20087;-74
2021/03/17 12:53:53;;;;;;;13.82;3.67;;;7.70;83.20;;;;;;5002551;28;20372;-73
2021/03/17 12:56:18;;;;;;;12.00;3.95;;;7.60;81.00;;;;;;5006909;28;20033;-73
2021/03/17 12:58:44;;;;;;;12.57;3.15;;;7.50;82.30;;;;;;5016192;28;20042;-73